sensor_id;sensor_type;location;lat;lon;timestamp;pressure;altitude;pressure_sealevel;temperature;humidity
45793;BME280;31495;42.740;22.908;2023-02-13T00:00:14;94733.38;;;-1.14;82.93
45793;BME280;31495;42.740;22.908;2023-02-13T00:01:14;94742.84;;;-1.03;83.20
45793;BME280;31495;42.740;22.908;2023-02-13T00:02:14;94745.88;;;-1.11;83.33
45793;BME280;31495;42.740;22.908;2023-02-13T00:03:14;94738.13;;;-1.22;83.50
45793;BME280;31495;42.740;22.908;2023-02-13T00:04:13;94743.81;;;-1.31;84.01
45793;BME280;31495;42.740;22.908;2023-02-13T00:05:13;94743.63;;;-1.15;83.92
45793;BME280;31495;42.740;22.908;2023-02-13T00:06:12;94746.78;;;-1.12;83.90
45793;BME280;31495;42.740;22.908;2023-02-13T00:07:12;94702.97;;;-1.41;83.48
45793;BME280;31495;42.740;22.908;2023-02-13T00:08:11;94735.72;;;-1.11;83.60
45793;BME280;31495;42.740;22.908;2023-02-13T00:09:11;94738.25;;;-1.11;83.44
45793;BME280;31495;42.740;22.908;2023-02-13T00:10:10;94739.28;;;-1.13;83.29
45793;BME280;31495;42.740;22.908;2023-02-13T00:11:10;94703.88;;;-1.42;83.58
45793;BME280;31495;42.740;22.908;2023-02-13T00:12:10;94668.47;;;-1.58;83.27
45793;BME280;31495;42.740;22.908;2023-02-13T00:13:10;94748.81;;;-1.04;83.02
45793;BME280;31495;42.740;22.908;2023-02-13T00:14:09;94757.16;;;-1.02;82.92
45793;BME280;31495;42.740;22.908;2023-02-13T00:15:08;94758.31;;;-0.93;82.99
45793;BME280;31495;42.740;22.908;2023-02-13T00:16:09;94759.13;;;-0.93;82.73
45793;BME280;31495;42.740;22.908;2023-02-13T00:17:08;94757.09;;;-0.87;82.59
45793;BME280;31495;42.740;22.908;2023-02-13T00:18:08;94696.59;;;-1.21;82.40
45793;BME280;31495;42.740;22.908;2023-02-13T00:19:07;94706.13;;;-1.12;81.91
45793;BME280;31495;42.740;22.908;2023-02-13T00:20:08;94729.13;;;-1.00;81.77
45793;BME280;31495;42.740;22.908;2023-02-13T00:21:11;94760.53;;;-0.76;81.48
45793;BME280;31495;42.740;22.908;2023-02-13T00:22:10;94715.50;;;-0.99;81.17
45793;BME280;31495;42.740;22.908;2023-02-13T00:23:10;94729.31;;;-0.90;81.04
45793;BME280;31495;42.740;22.908;2023-02-13T00:24:09;94734.81;;;-0.84;81.16
45793;BME280;31495;42.740;22.908;2023-02-13T00:25:09;94693.66;;;-1.02;80.82
45793;BME280;31495;42.740;22.908;2023-02-13T00:26:12;94762.69;;;-0.57;80.67
45793;BME280;31495;42.740;22.908;2023-02-13T00:27:12;94725.38;;;-0.95;81.06
45793;BME280;31495;42.740;22.908;2023-02-13T00:28:12;94693.13;;;-1.07;81.25
45793;BME280;31495;42.740;22.908;2023-02-13T00:29:12;94754.06;;;-0.67;81.10
45793;BME280;31495;42.740;22.908;2023-02-13T00:30:12;94762.91;;;-0.60;80.81
45793;BME280;31495;42.740;22.908;2023-02-13T00:31:14;94772.25;;;-0.60;80.61
45793;BME280;31495;42.740;22.908;2023-02-13T00:32:14;94717.94;;;-0.98;80.82
45793;BME280;31495;42.740;22.908;2023-02-13T00:33:14;94768.69;;;-0.58;80.76
45793;BME280;31495;42.740;22.908;2023-02-13T00:34:14;94735.03;;;-0.74;80.61
45793;BME280;31495;42.740;22.908;2023-02-13T00:35:13;94775.69;;;-0.61;80.44
45793;BME280;31495;42.740;22.908;2023-02-13T00:36:20;94692.22;;;-1.06;80.70
45793;BME280;31495;42.740;22.908;2023-02-13T00:37:20;94686.56;;;-0.97;80.36
45793;BME280;31495;42.740;22.908;2023-02-13T00:38:19;94762.59;;;-0.42;80.50
45793;BME280;31495;42.740;22.908;2023-02-13T00:39:19;94768.59;;;-0.43;80.24
45793;BME280;31495;42.740;22.908;2023-02-13T00:40:18;94765.44;;;-0.34;79.61
45793;BME280;31495;42.740;22.908;2023-02-13T00:41:18;94747.94;;;-0.39;79.38
45793;BME280;31495;42.740;22.908;2023-02-13T00:42:18;94766.13;;;-0.32;79.50
45793;BME280;31495;42.740;22.908;2023-02-13T00:43:18;94765.22;;;-0.31;79.69
45793;BME280;31495;42.740;22.908;2023-02-13T00:44:17;94769.38;;;-0.30;79.54
45793;BME280;31495;42.740;22.908;2023-02-13T00:45:17;94751.47;;;-0.41;79.51
45793;BME280;31495;42.740;22.908;2023-02-13T00:46:17;94775.69;;;-0.23;79.82
45793;BME280;31495;42.740;22.908;2023-02-13T00:47:17;94764.59;;;-0.22;79.48
45793;BME280;31495;42.740;22.908;2023-02-13T00:48:17;94775.25;;;-0.16;79.17
45793;BME280;31495;42.740;22.908;2023-02-13T00:49:16;94752.06;;;-0.25;79.00
45793;BME280;31495;42.740;22.908;2023-02-13T00:50:16;94765.09;;;-0.16;78.73
45793;BME280;31495;42.740;22.908;2023-02-13T00:51:15;94755.34;;;-0.23;78.80
45793;BME280;31495;42.740;22.908;2023-02-13T00:52:14;94727.78;;;-0.42;78.71
45793;BME280;31495;42.740;22.908;2023-02-13T00:53:14;94780.66;;;-0.08;78.83
45793;BME280;31495;42.740;22.908;2023-02-13T00:54:13;94759.59;;;-0.10;78.24
45793;BME280;31495;42.740;22.908;2023-02-13T00:55:13;94741.19;;;-0.27;78.35
45793;BME280;31495;42.740;22.908;2023-02-13T00:56:12;94785.13;;;0.01;78.39
45793;BME280;31495;42.740;22.908;2023-02-13T00:57:12;94760.44;;;-0.10;78.49
45793;BME280;31495;42.740;22.908;2023-02-13T00:58:11;94775.88;;;0.00;78.42
45793;BME280;31495;42.740;22.908;2023-02-13T00:59:11;94736.81;;;-0.25;78.29
45793;BME280;31495;42.740;22.908;2023-02-13T01:00:10;94750.25;;;-0.10;78.20
45793;BME280;31495;42.740;22.908;2023-02-13T01:01:10;94720.75;;;-0.25;77.84
45793;BME280;31495;42.740;22.908;2023-02-13T01:02:10;94783.81;;;0.08;77.74
45793;BME280;31495;42.740;22.908;2023-02-13T01:03:09;94790.09;;;0.15;77.79
45793;BME280;31495;42.740;22.908;2023-02-13T01:04:09;94787.13;;;0.22;77.32
45793;BME280;31495;42.740;22.908;2023-02-13T01:05:08;94703.97;;;-0.28;77.18
45793;BME280;31495;42.740;22.908;2023-02-13T01:06:07;94776.22;;;0.20;77.14
45793;BME280;31495;42.740;22.908;2023-02-13T01:07:07;94748.91;;;-0.03;77.19
45793;BME280;31495;42.740;22.908;2023-02-13T01:08:06;94761.59;;;0.10;76.92
45793;BME280;31495;42.740;22.908;2023-02-13T01:09:05;94770.31;;;0.19;77.16
45793;BME280;31495;42.740;22.908;2023-02-13T01:10:05;94765.81;;;0.23;76.84
45793;BME280;31495;42.740;22.908;2023-02-13T01:11:05;94776.38;;;0.29;76.86
45793;BME280;31495;42.740;22.908;2023-02-13T01:12:05;94788.38;;;0.40;76.76
45793;BME280;31495;42.740;22.908;2023-02-13T01:13:05;94778.72;;;0.32;77.02
45793;BME280;31495;42.740;22.908;2023-02-13T01:14:04;94794.56;;;0.25;77.19
45793;BME280;31495;42.740;22.908;2023-02-13T01:15:04;94763.16;;;0.00;77.72
45793;BME280;31495;42.740;22.908;2023-02-13T01:16:04;94736.41;;;-0.19;77.93
45793;BME280;31495;42.740;22.908;2023-02-13T01:17:04;94769.88;;;-0.12;78.61
45793;BME280;31495;42.740;22.908;2023-02-13T01:18:03;94684.41;;;-0.77;79.14
45793;BME280;31495;42.740;22.908;2023-02-13T01:19:03;94780.47;;;-0.18;79.51
45793;BME280;31495;42.740;22.908;2023-02-13T01:20:03;94775.50;;;-0.20;79.42
45793;BME280;31495;42.740;22.908;2023-02-13T01:21:06;94759.84;;;-0.39;79.78
45793;BME280;31495;42.740;22.908;2023-02-13T01:22:07;94786.28;;;-0.16;79.68
45793;BME280;31495;42.740;22.908;2023-02-13T01:23:07;94737.34;;;-0.32;79.44
45793;BME280;31495;42.740;22.908;2023-02-13T01:24:07;94789.91;;;-0.07;79.11
45793;BME280;31495;42.740;22.908;2023-02-13T01:25:06;94734.72;;;-0.31;78.94
45793;BME280;31495;42.740;22.908;2023-02-13T01:26:08;94779.94;;;0.03;78.77
45793;BME280;31495;42.740;22.908;2023-02-13T01:27:09;94769.94;;;-0.01;78.34
45793;BME280;31495;42.740;22.908;2023-02-13T01:28:08;94785.19;;;0.12;78.00
45793;BME280;31495;42.740;22.908;2023-02-13T01:29:11;94764.28;;;-0.04;77.95
45793;BME280;31495;42.740;22.908;2023-02-13T01:30:12;94754.09;;;-0.17;78.16
45793;BME280;31495;42.740;22.908;2023-02-13T01:31:12;94727.56;;;-0.26;78.38
45793;BME280;31495;42.740;22.908;2023-02-13T01:32:12;94774.63;;;0.06;78.28
45793;BME280;31495;42.740;22.908;2023-02-13T01:33:11;94787.34;;;0.18;77.77
45793;BME280;31495;42.740;22.908;2023-02-13T01:34:11;94779.81;;;0.04;77.84
45793;BME280;31495;42.740;22.908;2023-02-13T01:35:11;94753.63;;;-0.35;78.29
45793;BME280;31495;42.740;22.908;2023-02-13T01:36:12;94787.56;;;-0.10;78.59
45793;BME280;31495;42.740;22.908;2023-02-13T01:37:13;94738.97;;;-0.31;78.58
45793;BME280;31495;42.740;22.908;2023-02-13T01:38:12;94755.53;;;-0.13;78.14
45793;BME280;31495;42.740;22.908;2023-02-13T01:39:11;94727.09;;;-0.31;77.90
45793;BME280;31495;42.740;22.908;2023-02-13T01:40:13;94766.13;;;-0.06;77.96
45793;BME280;31495;42.740;22.908;2023-02-13T01:41:12;94780.44;;;-0.05;77.88
45793;BME280;31495;42.740;22.908;2023-02-13T01:42:23;94756.66;;;-0.30;78.14
45793;BME280;31495;42.740;22.908;2023-02-13T01:43:23;94781.69;;;-0.11;78.22
45793;BME280;31495;42.740;22.908;2023-02-13T01:44:55;94787.56;;;-0.10;78.23
45793;BME280;31495;42.740;22.908;2023-02-13T01:45:55;94785.25;;;-0.13;78.43
45793;BME280;31495;42.740;22.908;2023-02-13T01:46:56;94760.84;;;-0.29;78.01
45793;BME280;31495;42.740;22.908;2023-02-13T01:47:58;94778.66;;;-0.16;78.06
45793;BME280;31495;42.740;22.908;2023-02-13T01:49:12;94776.31;;;-0.19;77.88
45793;BME280;31495;42.740;22.908;2023-02-13T01:51:29;94757.91;;;-0.23;77.71
45793;BME280;31495;42.740;22.908;2023-02-13T01:52:30;94752.41;;;-0.29;77.56
45793;BME280;31495;42.740;22.908;2023-02-13T01:53:44;94783.63;;;-0.02;77.42
45793;BME280;31495;42.740;22.908;2023-02-13T01:54:44;94762.13;;;-0.10;77.06
45793;BME280;31495;42.740;22.908;2023-02-13T01:55:51;94740.09;;;-0.35;77.07
45793;BME280;31495;42.740;22.908;2023-02-13T01:56:53;94759.59;;;-0.23;77.20
45793;BME280;31495;42.740;22.908;2023-02-13T01:58:06;94780.03;;;-0.12;77.32
45793;BME280;31495;42.740;22.908;2023-02-13T01:59:12;94728.59;;;-0.41;77.29
45793;BME280;31495;42.740;22.908;2023-02-13T02:00:14;94742.34;;;-0.31;77.37
45793;BME280;31495;42.740;22.908;2023-02-13T02:01:15;94719.47;;;-0.44;77.17
45793;BME280;31495;42.740;22.908;2023-02-13T02:02:15;94775.06;;;-0.13;77.22
45793;BME280;31495;42.740;22.908;2023-02-13T02:03:21;94788.25;;;0.05;77.04
45793;BME280;31495;42.740;22.908;2023-02-13T02:04:27;94786.97;;;-0.14;77.13
45793;BME280;31495;42.740;22.908;2023-02-13T02:05:30;94770.13;;;-0.28;77.23
45793;BME280;31495;42.740;22.908;2023-02-13T02:06:37;94794.63;;;-0.27;77.44
45793;BME280;31495;42.740;22.908;2023-02-13T02:07:39;94788.31;;;-0.21;77.29
45793;BME280;31495;42.740;22.908;2023-02-13T02:08:40;94782.84;;;-0.28;77.42
45793;BME280;31495;42.740;22.908;2023-02-13T02:09:41;94778.84;;;-0.32;77.49
45793;BME280;31495;42.740;22.908;2023-02-13T02:10:43;94756.91;;;-0.46;77.30
45793;BME280;31495;42.740;22.908;2023-02-13T02:11:50;94788.44;;;-0.23;77.35
45793;BME280;31495;42.740;22.908;2023-02-13T02:12:57;94782.53;;;-0.36;77.75
45793;BME280;31495;42.740;22.908;2023-02-13T02:14:01;94779.47;;;-0.41;77.65
45793;BME280;31495;42.740;22.908;2023-02-13T02:15:02;94794.00;;;-0.30;77.54
45793;BME280;31495;42.740;22.908;2023-02-13T02:16:02;94740.31;;;-0.77;77.97
45793;BME280;31495;42.740;22.908;2023-02-13T02:17:01;94786.19;;;-0.53;78.54
45793;BME280;31495;42.740;22.908;2023-02-13T02:18:01;94723.75;;;-0.96;78.51
45793;BME280;31495;42.740;22.908;2023-02-13T02:19:03;94798.59;;;-0.48;78.45
45793;BME280;31495;42.740;22.908;2023-02-13T02:21:45;94792.59;;;-0.47;78.31
45793;BME280;31495;42.740;22.908;2023-02-13T02:24:31;94793.00;;;-0.53;78.22
45793;BME280;31495;42.740;22.908;2023-02-13T02:27:42;94740.31;;;-0.90;78.01
45793;BME280;31495;42.740;22.908;2023-02-13T02:29:10;94797.47;;;-0.57;78.15
45793;BME280;31495;42.740;22.908;2023-02-13T02:31:50;94797.78;;;-0.62;78.32
45793;BME280;31495;42.740;22.908;2023-02-13T02:33:05;94778.97;;;-0.72;78.27
45793;BME280;31495;42.740;22.908;2023-02-13T02:36:43;94748.75;;;-0.89;78.18
45793;BME280;31495;42.740;22.908;2023-02-13T02:40:40;94795.34;;;-0.63;77.76
45793;BME280;31495;42.740;22.908;2023-02-13T02:43:18;94743.47;;;-0.99;77.99
45793;BME280;31495;42.740;22.908;2023-02-13T02:44:30;94808.25;;;-0.66;77.64
45793;BME280;31495;42.740;22.908;2023-02-13T02:45:52;94802.06;;;-0.62;77.27
45793;BME280;31495;42.740;22.908;2023-02-13T02:48:54;94776.38;;;-0.98;77.42
45793;BME280;31495;42.740;22.908;2023-02-13T02:54:10;94806.19;;;-0.87;77.21
45793;BME280;31495;42.740;22.908;2023-02-13T02:55:53;94799.78;;;-0.93;77.38
45793;BME280;31495;42.740;22.908;2023-02-13T02:57:11;94788.25;;;-1.11;76.80
45793;BME280;31495;42.740;22.908;2023-02-13T02:59:38;94795.78;;;-1.09;77.17
45793;BME280;31495;42.740;22.908;2023-02-13T03:00:59;94807.16;;;-1.02;77.20
45793;BME280;31495;42.740;22.908;2023-02-13T03:02:18;94810.00;;;-1.07;77.01
45793;BME280;31495;42.740;22.908;2023-02-13T03:03:37;94799.19;;;-1.23;76.90
45793;BME280;31495;42.740;22.908;2023-02-13T03:04:58;94796.50;;;-1.35;77.27
45793;BME280;31495;42.740;22.908;2023-02-13T03:06:43;94814.41;;;-1.23;77.62
45793;BME280;31495;42.740;22.908;2023-02-13T03:07:44;94786.34;;;-1.35;78.02
45793;BME280;31495;42.740;22.908;2023-02-13T03:08:51;94814.59;;;-1.26;77.80
45793;BME280;31495;42.740;22.908;2023-02-13T03:10:22;94813.63;;;-1.24;78.04
45793;BME280;31495;42.740;22.908;2023-02-13T03:11:45;94809.16;;;-1.20;78.52
45793;BME280;31495;42.740;22.908;2023-02-13T03:13:12;94791.47;;;-1.22;78.29
45793;BME280;31495;42.740;22.908;2023-02-13T03:14:20;94803.78;;;-1.16;78.54
45793;BME280;31495;42.740;22.908;2023-02-13T03:15:24;94813.47;;;-1.08;78.59
45793;BME280;31495;42.740;22.908;2023-02-13T03:16:25;94774.38;;;-1.33;78.31
45793;BME280;31495;42.740;22.908;2023-02-13T03:17:43;94792.97;;;-1.32;78.45
45793;BME280;31495;42.740;22.908;2023-02-13T03:19:02;94784.63;;;-1.34;78.41
45793;BME280;31495;42.740;22.908;2023-02-13T03:22:14;94817.91;;;-1.12;78.39
45793;BME280;31495;42.740;22.908;2023-02-13T03:23:43;94827.97;;;-1.10;78.54
45793;BME280;31495;42.740;22.908;2023-02-13T03:24:56;94810.78;;;-1.19;78.42
45793;BME280;31495;42.740;22.908;2023-02-13T03:29:25;94787.84;;;-1.45;78.44
45793;BME280;31495;42.740;22.908;2023-02-13T03:32:11;94793.34;;;-1.38;78.38
45793;BME280;31495;42.740;22.908;2023-02-13T03:33:18;94816.25;;;-1.25;78.35
45793;BME280;31495;42.740;22.908;2023-02-13T03:34:24;94785.59;;;-1.50;78.43
45793;BME280;31495;42.740;22.908;2023-02-13T03:35:36;94796.91;;;-1.41;78.18
45793;BME280;31495;42.740;22.908;2023-02-13T03:37:02;94810.88;;;-1.21;78.16
45793;BME280;31495;42.740;22.908;2023-02-13T03:38:31;94726.09;;;-1.73;77.87
45793;BME280;31495;42.740;22.908;2023-02-13T03:40:46;94817.88;;;-1.24;78.05
45793;BME280;31495;42.740;22.908;2023-02-13T03:42:11;94748.84;;;-1.71;78.22
45793;BME280;31495;42.740;22.908;2023-02-13T03:43:16;94756.38;;;-1.70;78.02
45793;BME280;31495;42.740;22.908;2023-02-13T03:44:36;94787.94;;;-1.46;77.76
45793;BME280;31495;42.740;22.908;2023-02-13T03:45:40;94816.63;;;-1.32;78.00
45793;BME280;31495;42.740;22.908;2023-02-13T03:46:54;94770.94;;;-1.59;78.16
45793;BME280;31495;42.740;22.908;2023-02-13T03:47:56;94819.78;;;-1.28;78.16
45793;BME280;31495;42.740;22.908;2023-02-13T03:48:58;94821.50;;;-1.28;77.82
45793;BME280;31495;42.740;22.908;2023-02-13T03:50:36;94824.09;;;-1.43;77.21
45793;BME280;31495;42.740;22.908;2023-02-13T03:53:09;94828.66;;;-1.48;76.45
45793;BME280;31495;42.740;22.908;2023-02-13T03:54:22;94820.69;;;-1.56;76.77
45793;BME280;31495;42.740;22.908;2023-02-13T03:55:44;94804.22;;;-1.63;76.42
45793;BME280;31495;42.740;22.908;2023-02-13T03:57:04;94801.16;;;-1.69;75.53
45793;BME280;31495;42.740;22.908;2023-02-13T03:58:27;94834.25;;;-1.70;75.30
45793;BME280;31495;42.740;22.908;2023-02-13T03:59:47;94831.19;;;-1.90;75.56
45793;BME280;31495;42.740;22.908;2023-02-13T04:00:54;94831.38;;;-1.93;76.31
45793;BME280;31495;42.740;22.908;2023-02-13T04:03:14;94832.78;;;-1.89;76.26
45793;BME280;31495;42.740;22.908;2023-02-13T04:06:15;94808.53;;;-2.07;75.79
45793;BME280;31495;42.740;22.908;2023-02-13T04:07:17;94835.25;;;-1.87;75.56
45793;BME280;31495;42.740;22.908;2023-02-13T04:08:30;94828.56;;;-2.03;75.41
45793;BME280;31495;42.740;22.908;2023-02-13T04:09:31;94839.34;;;-1.99;75.54
45793;BME280;31495;42.740;22.908;2023-02-13T04:10:34;94837.72;;;-2.00;75.58
45793;BME280;31495;42.740;22.908;2023-02-13T04:11:39;94831.44;;;-2.09;75.95
45793;BME280;31495;42.740;22.908;2023-02-13T04:12:51;94833.44;;;-2.14;75.95
45793;BME280;31495;42.740;22.908;2023-02-13T04:13:57;94841.78;;;-2.41;75.75
45793;BME280;31495;42.740;22.908;2023-02-13T04:16:33;94789.44;;;-2.70;75.73
45793;BME280;31495;42.740;22.908;2023-02-13T04:17:39;94827.09;;;-2.50;76.21
45793;BME280;31495;42.740;22.908;2023-02-13T04:18:41;94841.06;;;-2.43;75.49
45793;BME280;31495;42.740;22.908;2023-02-13T04:19:41;94854.19;;;-2.36;76.00
45793;BME280;31495;42.740;22.908;2023-02-13T04:20:41;94851.09;;;-2.41;76.26
45793;BME280;31495;42.740;22.908;2023-02-13T04:21:41;94846.13;;;-2.28;76.37
45793;BME280;31495;42.740;22.908;2023-02-13T04:22:42;94848.84;;;-2.31;76.08
45793;BME280;31495;42.740;22.908;2023-02-13T04:23:42;94829.00;;;-2.53;76.28
45793;BME280;31495;42.740;22.908;2023-02-13T04:24:42;94854.47;;;-2.41;76.28
45793;BME280;31495;42.740;22.908;2023-02-13T04:25:44;94852.09;;;-2.44;76.13
45793;BME280;31495;42.740;22.908;2023-02-13T04:26:45;94840.41;;;-2.61;76.32
45793;BME280;31495;42.740;22.908;2023-02-13T04:27:44;94838.41;;;-2.55;76.41
45793;BME280;31495;42.740;22.908;2023-02-13T04:28:44;94848.53;;;-2.41;75.69
45793;BME280;31495;42.740;22.908;2023-02-13T04:29:43;94844.13;;;-2.52;76.37
45793;BME280;31495;42.740;22.908;2023-02-13T04:30:43;94790.84;;;-2.81;75.81
45793;BME280;31495;42.740;22.908;2023-02-13T04:31:42;94838.31;;;-2.54;75.86
45793;BME280;31495;42.740;22.908;2023-02-13T04:32:42;94846.72;;;-2.53;75.30
45793;BME280;31495;42.740;22.908;2023-02-13T04:33:41;94851.47;;;-2.47;75.08
45793;BME280;31495;42.740;22.908;2023-02-13T04:34:41;94816.63;;;-2.74;75.27
45793;BME280;31495;42.740;22.908;2023-02-13T04:35:40;94805.06;;;-2.78;75.00
45793;BME280;31495;42.740;22.908;2023-02-13T04:36:39;94849.66;;;-2.45;74.89
45793;BME280;31495;42.740;22.908;2023-02-13T04:37:39;94852.59;;;-2.53;74.95
45793;BME280;31495;42.740;22.908;2023-02-13T04:38:39;94851.16;;;-2.57;75.08
45793;BME280;31495;42.740;22.908;2023-02-13T04:39:38;94812.31;;;-2.72;74.85
45793;BME280;31495;42.740;22.908;2023-02-13T04:40:37;94840.84;;;-2.54;74.67
45793;BME280;31495;42.740;22.908;2023-02-13T04:41:37;94855.06;;;-2.51;74.53
45793;BME280;31495;42.740;22.908;2023-02-13T04:42:36;94816.03;;;-2.63;74.41
45793;BME280;31495;42.740;22.908;2023-02-13T04:43:36;94820.13;;;-2.61;74.37
45793;BME280;31495;42.740;22.908;2023-02-13T04:44:35;94851.19;;;-2.43;74.33
45793;BME280;31495;42.740;22.908;2023-02-13T04:45:35;94833.88;;;-2.65;73.96
45793;BME280;31495;42.740;22.908;2023-02-13T04:46:34;94847.09;;;-2.60;73.80
45793;BME280;31495;42.740;22.908;2023-02-13T04:47:34;94849.97;;;-2.66;73.73
45793;BME280;31495;42.740;22.908;2023-02-13T04:48:33;94848.09;;;-2.62;73.78
45793;BME280;31495;42.740;22.908;2023-02-13T04:49:32;94842.19;;;-2.63;73.62
45793;BME280;31495;42.740;22.908;2023-02-13T04:50:32;94809.66;;;-2.85;73.61
45793;BME280;31495;42.740;22.908;2023-02-13T04:51:31;94830.69;;;-2.68;73.36
45793;BME280;31495;42.740;22.908;2023-02-13T04:52:31;94849.69;;;-2.61;73.17
45793;BME280;31495;42.740;22.908;2023-02-13T04:53:30;94846.19;;;-2.59;72.83
45793;BME280;31495;42.740;22.908;2023-02-13T04:54:30;94799.50;;;-2.99;72.95
45793;BME280;31495;42.740;22.908;2023-02-13T04:55:29;94850.03;;;-2.82;73.50
45793;BME280;31495;42.740;22.908;2023-02-13T04:56:29;94845.06;;;-2.83;73.61
45793;BME280;31495;42.740;22.908;2023-02-13T04:57:28;94834.28;;;-2.87;73.42
45793;BME280;31495;42.740;22.908;2023-02-13T04:58:28;94846.50;;;-2.79;73.60
45793;BME280;31495;42.740;22.908;2023-02-13T04:59:27;94823.09;;;-2.99;73.60
45793;BME280;31495;42.740;22.908;2023-02-13T05:00:28;94848.31;;;-2.81;73.43
45793;BME280;31495;42.740;22.908;2023-02-13T05:01:28;94829.47;;;-2.91;73.32
45793;BME280;31495;42.740;22.908;2023-02-13T05:02:28;94789.72;;;-3.05;72.83
45793;BME280;31495;42.740;22.908;2023-02-13T05:03:29;94774.88;;;-3.11;72.75
45793;BME280;31495;42.740;22.908;2023-02-13T05:04:28;94783.28;;;-3.11;72.55
45793;BME280;31495;42.740;22.908;2023-02-13T05:05:27;94846.56;;;-2.81;72.62
45793;BME280;31495;42.740;22.908;2023-02-13T05:06:27;94828.00;;;-2.96;72.38
45793;BME280;31495;42.740;22.908;2023-02-13T05:07:27;94793.19;;;-3.22;72.78
45793;BME280;31495;42.740;22.908;2023-02-13T05:08:26;94851.81;;;-2.84;72.69
45793;BME280;31495;42.740;22.908;2023-02-13T05:09:26;94852.44;;;-2.94;72.23
45793;BME280;31495;42.740;22.908;2023-02-13T05:10:25;94852.50;;;-2.96;72.81
45793;BME280;31495;42.740;22.908;2023-02-13T05:11:25;94851.97;;;-3.01;72.78
45793;BME280;31495;42.740;22.908;2023-02-13T05:12:24;94851.22;;;-3.03;72.76
45793;BME280;31495;42.740;22.908;2023-02-13T05:13:24;94845.66;;;-3.10;72.95
45793;BME280;31495;42.740;22.908;2023-02-13T05:14:23;94836.88;;;-3.19;72.55
45793;BME280;31495;42.740;22.908;2023-02-13T05:15:23;94859.38;;;-2.98;72.31
45793;BME280;31495;42.740;22.908;2023-02-13T05:16:22;94826.66;;;-3.17;72.30
45793;BME280;31495;42.740;22.908;2023-02-13T05:17:22;94851.31;;;-3.05;72.55
45793;BME280;31495;42.740;22.908;2023-02-13T05:18:21;94864.88;;;-3.06;72.84
45793;BME280;31495;42.740;22.908;2023-02-13T05:19:20;94858.53;;;-3.13;72.94
45793;BME280;31495;42.740;22.908;2023-02-13T05:20:20;94861.13;;;-3.15;73.20
45793;BME280;31495;42.740;22.908;2023-02-13T05:21:20;94801.66;;;-3.54;73.10
45793;BME280;31495;42.740;22.908;2023-02-13T05:22:46;94867.81;;;-3.14;73.27
45793;BME280;31495;42.740;22.908;2023-02-13T05:24:05;94836.31;;;-3.40;73.28
45793;BME280;31495;42.740;22.908;2023-02-13T05:25:05;94800.41;;;-3.62;73.17
45793;BME280;31495;42.740;22.908;2023-02-13T05:26:05;94860.97;;;-3.27;73.06
45793;BME280;31495;42.740;22.908;2023-02-13T05:27:04;94859.75;;;-3.20;72.96
45793;BME280;31495;42.740;22.908;2023-02-13T05:28:04;94858.38;;;-3.26;72.80
45793;BME280;31495;42.740;22.908;2023-02-13T05:29:24;94866.53;;;-3.21;72.69
45793;BME280;31495;42.740;22.908;2023-02-13T05:30:23;94870.34;;;-3.14;72.70
45793;BME280;31495;42.740;22.908;2023-02-13T05:31:23;94878.38;;;-3.21;72.33
45793;BME280;31495;42.740;22.908;2023-02-13T05:32:23;94856.72;;;-3.27;72.35
45793;BME280;31495;42.740;22.908;2023-02-13T05:33:22;94839.28;;;-3.47;71.71
45793;BME280;31495;42.740;22.908;2023-02-13T05:34:23;94876.50;;;-3.34;72.28
45793;BME280;31495;42.740;22.908;2023-02-13T05:35:23;94881.72;;;-3.37;72.35
45793;BME280;31495;42.740;22.908;2023-02-13T05:36:23;94881.81;;;-3.38;72.78
45793;BME280;31495;42.740;22.908;2023-02-13T05:37:23;94854.47;;;-3.47;72.47
45793;BME280;31495;42.740;22.908;2023-02-13T05:38:22;94870.06;;;-3.39;72.22
45793;BME280;31495;42.740;22.908;2023-02-13T05:39:21;94797.75;;;-3.75;71.91
45793;BME280;31495;42.740;22.908;2023-02-13T05:40:21;94878.88;;;-3.30;72.32
45793;BME280;31495;42.740;22.908;2023-02-13T05:41:20;94850.31;;;-3.48;72.47
45793;BME280;31495;42.740;22.908;2023-02-13T05:42:20;94873.72;;;-3.45;72.14
45793;BME280;31495;42.740;22.908;2023-02-13T05:43:19;94796.63;;;-4.01;71.96
45793;BME280;31495;42.740;22.908;2023-02-13T05:44:19;94880.25;;;-3.41;72.03
45793;BME280;31495;42.740;22.908;2023-02-13T05:45:18;94879.50;;;-3.43;72.36
45793;BME280;31495;42.740;22.908;2023-02-13T05:46:18;94797.84;;;-3.93;72.32
45793;BME280;31495;42.740;22.908;2023-02-13T05:47:17;94849.81;;;-3.55;72.01
45793;BME280;31495;42.740;22.908;2023-02-13T05:48:17;94884.56;;;-3.27;71.80
45793;BME280;31495;42.740;22.908;2023-02-13T05:49:17;94885.13;;;-3.22;71.90
45793;BME280;31495;42.740;22.908;2023-02-13T05:50:16;94882.69;;;-3.23;71.59
45793;BME280;31495;42.740;22.908;2023-02-13T05:51:16;94892.16;;;-3.27;71.63
45793;BME280;31495;42.740;22.908;2023-02-13T05:52:16;94829.25;;;-3.65;71.99
45793;BME280;31495;42.740;22.908;2023-02-13T05:53:16;94849.81;;;-3.55;71.98
45793;BME280;31495;42.740;22.908;2023-02-13T05:54:16;94857.50;;;-3.57;71.74
45793;BME280;31495;42.740;22.908;2023-02-13T05:55:15;94871.34;;;-3.48;71.62
45793;BME280;31495;42.740;22.908;2023-02-13T05:56:15;94887.94;;;-3.42;71.57
45793;BME280;31495;42.740;22.908;2023-02-13T05:57:15;94887.94;;;-3.42;71.79
45793;BME280;31495;42.740;22.908;2023-02-13T05:58:14;94871.44;;;-3.49;71.24
45793;BME280;31495;42.740;22.908;2023-02-13T05:59:13;94889.16;;;-3.34;71.39
45793;BME280;31495;42.740;22.908;2023-02-13T06:00:13;94842.78;;;-3.66;70.99
45793;BME280;31495;42.740;22.908;2023-02-13T06:01:13;94894.94;;;-3.32;71.18
45793;BME280;31495;42.740;22.908;2023-02-13T06:02:12;94817.44;;;-3.80;70.96
45793;BME280;31495;42.740;22.908;2023-02-13T06:03:11;94883.44;;;-3.37;70.56
45793;BME280;31495;42.740;22.908;2023-02-13T06:04:11;94899.34;;;-3.35;70.94
45793;BME280;31495;42.740;22.908;2023-02-13T06:05:11;94889.81;;;-3.46;71.05
45793;BME280;31495;42.740;22.908;2023-02-13T06:06:10;94804.34;;;-4.04;70.91
45793;BME280;31495;42.740;22.908;2023-02-13T06:07:09;94875.50;;;-3.63;71.47
45793;BME280;31495;42.740;22.908;2023-02-13T06:08:09;94826.13;;;-4.02;71.32